Terminal Aerodrome Forecast
Issued by NWS Memphis, TN

Home | Current Version | Previous Version | Text Only | Print | Product List | Glossary On
Versions: 1 2 3 4 5 6 7 8 9 10 11 12 13 14 15
000
FTUS44 KMEG 101700
TAFJBR
TAF
KJBR 101720Z 1018/1118 07005KT P6SM SCT050 BKN200
     FM110000 00000KT P6SM BKN150
     FM111400 15006KT P6SM SCT250=

USA.gov is the U.S. government's official web portal to all federal, state and local government web resources and services.